Terminal Aerodrome Forecast
Issued by NWS

Home | Current Version | Previous Version | Text Only | Print | Product List | Glossary On
Versions: 1 2 3 4 5 6 7 8 9 10 11 12 13 14 15 16 17 18 19 20 21 22
000
FTUS43 KSGF 170425 AAA
TAFJLN
TAF AMD
KJLN 170425Z 1704/1724 14010KT P6SM OVC025
     FM170600 16012G19KT P6SM OVC025 WS020/21050KT
     FM170800 16015G22KT P6SM OVC015 WS020/21050KT
     FM171400 19025G33KT P6SM SCT007 OVC015 WS020/21050KT=

USA.gov is the U.S. government's official web portal to all federal, state and local government web resources and services.